createdAt,value
2019-02-23T00:00:34.912Z,97437
2019-02-23T00:01:44.480Z,97435
2019-02-23T00:02:53.999Z,97431
2019-02-23T00:04:03.501Z,97435
2019-02-23T00:05:13.016Z,97429
2019-02-23T00:06:29.549Z,97433
2019-02-23T00:07:33.035Z,97432
2019-02-23T00:08:42.535Z,97429
2019-02-23T00:09:52.045Z,97437
2019-02-23T00:11:01.557Z,97435
2019-02-23T00:12:11.087Z,97433
2019-02-23T00:13:20.592Z,97440
2019-02-23T00:14:30.132Z,97435
2019-02-23T00:15:39.669Z,97440
2019-02-23T00:16:49.403Z,97442
2019-02-23T00:17:59.013Z,97436
2019-02-23T00:19:08.532Z,97435
2019-02-23T00:20:19.031Z,97439
2019-02-23T00:21:28.546Z,97437
2019-02-23T00:22:38.072Z,97442
2019-02-23T00:23:47.589Z,97439
2019-02-23T00:24:57.126Z,97436
2019-02-23T00:26:06.639Z,97436
2019-02-23T00:27:16.162Z,97439
2019-02-23T00:28:25.669Z,97439
2019-02-23T00:29:35.177Z,97440
2019-02-23T00:30:44.688Z,97442
2019-02-23T00:31:54.213Z,97440
2019-02-23T00:33:03.725Z,97436
2019-02-23T00:34:13.278Z,97439
2019-02-23T00:35:22.778Z,97436
2019-02-23T00:36:32.294Z,97434
2019-02-23T00:37:41.829Z,97438
2019-02-23T00:38:51.347Z,97443
2019-02-23T00:40:00.867Z,97439
2019-02-23T00:41:10.400Z,97438
2019-02-23T00:42:19.925Z,97439
2019-02-23T00:43:29.470Z,97438
2019-02-23T00:44:38.980Z,97438
2019-02-23T00:45:48.524Z,97437
2019-02-23T00:46:58.028Z,97433
2019-02-23T00:48:07.548Z,97436
2019-02-23T00:49:17.061Z,97436
2019-02-23T00:50:26.586Z,97436
2019-02-23T00:51:36.097Z,97439
2019-02-23T00:52:45.608Z,97439
2019-02-23T00:53:55.118Z,97439
2019-02-23T00:55:04.646Z,97444
2019-02-23T00:56:14.178Z,97442
2019-02-23T00:57:23.685Z,97446
2019-02-23T00:58:33.194Z,97447
2019-02-23T00:59:42.702Z,97456
2019-02-23T01:00:52.251Z,97448
2019-02-23T01:02:01.767Z,97452
2019-02-23T01:03:11.274Z,97447
2019-02-23T01:04:20.793Z,97449
2019-02-23T01:05:30.318Z,97453
2019-02-23T01:06:39.832Z,97452
2019-02-23T01:07:49.356Z,97451
2019-02-23T01:08:58.868Z,97454
2019-02-23T01:10:08.378Z,97450
2019-02-23T01:11:18.026Z,97449
2019-02-23T01:12:27.529Z,97449
2019-02-23T01:13:37.059Z,97449
2019-02-23T01:14:46.569Z,97450
2019-02-23T01:15:58.389Z,97452
2019-02-23T01:17:05.698Z,97452
2019-02-23T01:18:15.207Z,97454
2019-02-23T01:19:24.712Z,97452
2019-02-23T01:20:34.238Z,97451
2019-02-23T01:21:43.748Z,97450
2019-02-23T01:22:53.261Z,97453
2019-02-23T01:24:02.764Z,97447
2019-02-23T01:25:12.294Z,97449
2019-02-23T01:26:21.834Z,97454
2019-02-23T01:27:31.335Z,97450
2019-02-23T01:28:40.878Z,97454
2019-02-23T01:29:50.385Z,97457
2019-02-23T01:30:59.927Z,97454
2019-02-23T01:32:09.446Z,97459
2019-02-23T01:33:18.961Z,97456
2019-02-23T01:34:28.473Z,97455
2019-02-23T01:35:37.998Z,97460
2019-02-23T01:36:47.516Z,97466
2019-02-23T01:37:57.030Z,97463
2019-02-23T01:39:06.570Z,97459
2019-02-23T01:40:16.081Z,97463
2019-02-23T01:41:25.611Z,97469
2019-02-23T01:42:35.121Z,97468
2019-02-23T01:43:44.661Z,97474
2019-02-23T01:44:54.158Z,97473
2019-02-23T01:46:03.685Z,97473
2019-02-23T01:47:13.203Z,97478
2019-02-23T01:48:23.713Z,97479
2019-02-23T01:49:33.242Z,97481
2019-02-23T01:50:42.778Z,97483
2019-02-23T01:51:52.304Z,97480
2019-02-23T01:53:01.819Z,97476
2019-02-23T01:54:11.338Z,97483
2019-02-23T01:55:20.845Z,97480
2019-02-23T01:56:30.371Z,97476
2019-02-23T01:57:39.872Z,97476
2019-02-23T01:58:49.397Z,97471
2019-02-23T01:59:58.916Z,97472
2019-02-23T02:01:08.440Z,97475
2019-02-23T02:02:17.953Z,97475
2019-02-23T02:03:27.461Z,97479
2019-02-23T02:04:36.972Z,97478
2019-02-23T02:05:46.487Z,97482
2019-02-23T02:06:56.027Z,97479
2019-02-23T02:08:05.542Z,97480
2019-02-23T02:09:15.066Z,97479
2019-02-23T02:10:24.586Z,97481
2019-02-23T02:11:34.121Z,97482
2019-02-23T02:12:43.643Z,97488
2019-02-23T02:13:53.150Z,97482
2019-02-23T02:15:02.659Z,97486
2019-02-23T02:16:12.188Z,97477
2019-02-23T02:17:21.709Z,97487
2019-02-23T02:18:31.228Z,97481
2019-02-23T02:19:40.742Z,97482
2019-02-23T02:20:50.266Z,97486
2019-02-23T02:21:59.792Z,97492
2019-02-23T02:23:09.311Z,97490
2019-02-23T02:24:18.835Z,97492
2019-02-23T02:25:28.346Z,97490
2019-02-23T02:26:37.868Z,97492
2019-02-23T02:27:47.387Z,97488
2019-02-23T02:28:56.910Z,97493
2019-02-23T02:30:06.423Z,97496
2019-02-23T02:31:15.950Z,97498
2019-02-23T02:32:25.459Z,97502
2019-02-23T02:33:34.968Z,97501
2019-02-23T02:34:44.485Z,97500
2019-02-23T02:35:54.002Z,97497
2019-02-23T02:37:03.532Z,97494
2019-02-23T02:38:13.062Z,97491
2019-02-23T02:39:22.669Z,97490
2019-02-23T02:40:32.078Z,97490
2019-02-23T02:41:41.629Z,97490
2019-02-23T02:42:51.141Z,97486
2019-02-23T02:44:00.651Z,97486
2019-02-23T02:45:10.162Z,97485
2019-02-23T02:46:19.680Z,97487
2019-02-23T02:47:30.213Z,97488
2019-02-23T02:48:39.726Z,97491
2019-02-23T02:49:49.233Z,97484
2019-02-23T02:50:58.739Z,97485
2019-02-23T02:52:08.274Z,97486
2019-02-23T02:53:17.778Z,97482
2019-02-23T02:54:27.292Z,97480
2019-02-23T02:55:36.800Z,97484
2019-02-23T02:56:46.324Z,97480
2019-02-23T02:57:55.837Z,97483
2019-02-23T02:59:05.350Z,97487
2019-02-23T03:00:14.856Z,97483
2019-02-23T03:01:24.376Z,97484
2019-02-23T03:02:33.896Z,97481
2019-02-23T03:03:43.413Z,97486
2019-02-23T03:04:52.929Z,97483
2019-02-23T03:06:02.449Z,97480
2019-02-23T03:07:11.968Z,97477
2019-02-23T03:08:21.476Z,97487
2019-02-23T03:09:30.989Z,97474
2019-02-23T03:10:40.524Z,97479
2019-02-23T03:11:50.043Z,97477
2019-02-23T03:12:59.561Z,97475
2019-02-23T03:14:09.105Z,97472
2019-02-23T03:15:18.609Z,97476
2019-02-23T03:16:28.131Z,97477
2019-02-23T03:17:37.654Z,97474
2019-02-23T03:18:47.175Z,97478
2019-02-23T03:19:56.695Z,97472
2019-02-23T03:21:06.195Z,97476
2019-02-23T03:22:15.719Z,97475
2019-02-23T03:23:25.282Z,97473
2019-02-23T03:24:34.791Z,97471
2019-02-23T03:25:44.291Z,97471
2019-02-23T03:26:53.802Z,97474
2019-02-23T03:28:03.344Z,97474
2019-02-23T03:29:12.856Z,97472
2019-02-23T03:30:22.360Z,97479
2019-02-23T03:31:31.891Z,97470
2019-02-23T03:32:41.423Z,97473
2019-02-23T03:33:50.918Z,97478
2019-02-23T03:35:00.456Z,97479
2019-02-23T03:36:09.967Z,97483
2019-02-23T03:37:19.483Z,97479
2019-02-23T03:38:28.990Z,97477
2019-02-23T03:39:38.502Z,97478
2019-02-23T03:40:48.007Z,97477
2019-02-23T03:41:57.519Z,97481
2019-02-23T03:43:07.034Z,97484
2019-02-23T03:44:16.541Z,97489
2019-02-23T03:45:26.044Z,97493
2019-02-23T03:46:35.555Z,97498
2019-02-23T03:47:45.090Z,97498
2019-02-23T03:48:54.600Z,97493
2019-02-23T03:50:04.118Z,97493
2019-02-23T03:51:13.637Z,97495
2019-02-23T03:52:23.183Z,97496
2019-02-23T03:53:32.711Z,97492
2019-02-23T03:54:42.222Z,97491
2019-02-23T03:55:51.724Z,97493
2019-02-23T03:57:01.238Z,97492
2019-02-23T03:58:10.761Z,97488
2019-02-23T03:59:20.274Z,97491
2019-02-23T04:00:29.782Z,97487
2019-02-23T04:01:39.287Z,97493
2019-02-23T04:02:48.809Z,97494
2019-02-23T04:03:58.328Z,97495
2019-02-23T04:05:07.839Z,97494
2019-02-23T04:06:17.353Z,97494
2019-02-23T04:07:26.863Z,97496
2019-02-23T04:08:36.401Z,97497
2019-02-23T04:09:45.911Z,97502
2019-02-23T04:10:55.425Z,97498
2019-02-23T04:12:04.923Z,97498
2019-02-23T04:13:14.443Z,97492
2019-02-23T04:14:23.950Z,97489
2019-02-23T04:15:33.455Z,97489
2019-02-23T04:16:42.978Z,97488
2019-02-23T04:17:52.562Z,97488
2019-02-23T04:19:02.078Z,97486
2019-02-23T04:20:11.585Z,97488
2019-02-23T04:21:21.098Z,97489
2019-02-23T04:22:30.611Z,97487
2019-02-23T04:23:40.144Z,97488
2019-02-23T04:24:49.656Z,97486
2019-02-23T04:25:59.160Z,97486
2019-02-23T04:27:08.669Z,97481
2019-02-23T04:28:18.218Z,97477
2019-02-23T04:29:27.728Z,97476
2019-02-23T04:30:37.251Z,97480
2019-02-23T04:31:46.775Z,97477
2019-02-23T04:32:56.318Z,97482
2019-02-23T04:34:05.834Z,97482
2019-02-23T04:35:15.341Z,97482
2019-02-23T04:36:24.850Z,97481
2019-02-23T04:37:34.363Z,97482
2019-02-23T04:38:43.882Z,97482
2019-02-23T04:39:53.386Z,97480
2019-02-23T04:41:02.906Z,97485
2019-02-23T04:42:12.418Z,97486
2019-02-23T04:43:21.944Z,97486
2019-02-23T04:44:31.465Z,97476
2019-02-23T04:45:40.992Z,97476
2019-02-23T04:46:50.498Z,97479
2019-02-23T04:48:00.027Z,97474
2019-02-23T04:49:09.534Z,97471
2019-02-23T04:50:19.043Z,97471
2019-02-23T04:51:28.560Z,97465
2019-02-23T04:52:38.079Z,97466
2019-02-23T04:53:47.581Z,97460
2019-02-23T04:54:57.095Z,97459
2019-02-23T04:56:06.592Z,97453
2019-02-23T04:57:16.114Z,97455
2019-02-23T04:58:25.623Z,97454
2019-02-23T04:59:35.138Z,97454
2019-02-23T05:00:45.037Z,97449
2019-02-23T05:01:54.172Z,97453
2019-02-23T05:03:03.678Z,97449
2019-02-23T05:04:13.190Z,97451
2019-02-23T05:05:22.693Z,97448
2019-02-23T05:06:32.215Z,97450
2019-02-23T05:07:41.740Z,97456
2019-02-23T05:08:51.258Z,97456
2019-02-23T05:10:00.768Z,97460
2019-02-23T05:11:10.284Z,97458
2019-02-23T05:12:19.804Z,97455
2019-02-23T05:13:29.340Z,97456
2019-02-23T05:14:38.855Z,97465
2019-02-23T05:15:48.382Z,97466
2019-02-23T05:16:57.899Z,97467
2019-02-23T05:18:07.425Z,97473
2019-02-23T05:19:16.933Z,97474
2019-02-23T05:20:26.448Z,97477
2019-02-23T05:21:35.956Z,97478
2019-02-23T05:22:45.494Z,97477
2019-02-23T05:23:54.986Z,97478
2019-02-23T05:25:04.511Z,97476
2019-02-23T05:26:15.015Z,97476
2019-02-23T05:27:24.541Z,97479
2019-02-23T05:28:34.062Z,97472
2019-02-23T05:29:43.559Z,97468
2019-02-23T05:30:53.069Z,97472
2019-02-23T05:32:02.586Z,97475
2019-02-23T05:33:12.106Z,97478
2019-02-23T05:34:21.623Z,97481
2019-02-23T05:35:31.132Z,97484
2019-02-23T05:36:40.642Z,97483
2019-02-23T05:37:50.199Z,97493
2019-02-23T05:38:59.705Z,97485
2019-02-23T05:40:09.216Z,97484
2019-02-23T05:41:18.726Z,97485
2019-02-23T05:42:28.265Z,97490
2019-02-23T05:43:37.775Z,97490
2019-02-23T05:44:47.298Z,97486
2019-02-23T05:45:56.799Z,97481
2019-02-23T05:47:06.306Z,97481
2019-02-23T05:48:15.827Z,97477
2019-02-23T05:49:26.328Z,97472
2019-02-23T05:50:35.843Z,97476
2019-02-23T05:51:45.352Z,97476
2019-02-23T05:52:54.876Z,97476
2019-02-23T05:54:04.393Z,97471
2019-02-23T05:55:13.898Z,97479
2019-02-23T05:56:23.408Z,97479
2019-02-23T05:57:32.919Z,97472
2019-02-23T05:58:42.437Z,97474
2019-02-23T05:59:51.950Z,97476
2019-02-23T06:01:01.458Z,97472
2019-02-23T06:02:10.973Z,97464
2019-02-23T06:03:20.501Z,97468
2019-02-23T06:04:30.019Z,97466
2019-02-23T06:05:39.551Z,97468
2019-02-23T06:06:49.071Z,97472
2019-02-23T06:07:58.625Z,97478
2019-02-23T06:09:08.132Z,97467
2019-02-23T06:10:17.632Z,97472
2019-02-23T06:11:27.150Z,97474
2019-02-23T06:12:36.669Z,97476
2019-02-23T06:13:46.186Z,97480
2019-02-23T06:14:55.700Z,97478
2019-02-23T06:16:05.227Z,97485
2019-02-23T06:17:14.740Z,97485
2019-02-23T06:18:24.318Z,97489
2019-02-23T06:19:33.865Z,97488
2019-02-23T06:20:43.447Z,97490
2019-02-23T06:21:54.487Z,97492
2019-02-23T06:23:02.399Z,97491
2019-02-23T06:24:11.941Z,97496
2019-02-23T06:25:21.464Z,97503
2019-02-23T06:26:31.017Z,97500
2019-02-23T06:27:40.523Z,97505
2019-02-23T06:28:50.053Z,97507
2019-02-23T06:29:59.571Z,97511
2019-02-23T06:31:09.094Z,97513
2019-02-23T06:32:18.612Z,97512
2019-02-23T06:33:28.154Z,97509
2019-02-23T06:34:37.661Z,97507
2019-02-23T06:35:47.162Z,97499
2019-02-23T06:36:56.677Z,97503
2019-02-23T06:38:06.196Z,97509
2019-02-23T06:39:15.726Z,97507
2019-02-23T06:40:25.252Z,97501
2019-02-23T06:41:34.759Z,97503
2019-02-23T06:42:44.277Z,97496
2019-02-23T06:43:53.794Z,97496
2019-02-23T06:45:03.320Z,97499
2019-02-23T06:46:12.850Z,97501
2019-02-23T06:47:22.411Z,97498
2019-02-23T06:48:31.947Z,97497
2019-02-23T06:49:41.468Z,97497
2019-02-23T06:50:50.974Z,97503
2019-02-23T06:52:04.163Z,97505
2019-02-23T06:53:09.991Z,97516
2019-02-23T06:54:19.524Z,97509
2019-02-23T06:55:29.037Z,97511
2019-02-23T06:56:38.552Z,97514
2019-02-23T06:57:48.068Z,97513
2019-02-23T06:58:57.585Z,97519
2019-02-23T07:00:07.110Z,97520
2019-02-23T07:01:16.650Z,97522
2019-02-23T07:02:26.160Z,97522
2019-02-23T07:03:35.689Z,97515
2019-02-23T07:04:45.238Z,97517
2019-02-23T07:05:54.766Z,97517
2019-02-23T07:07:04.275Z,97518
2019-02-23T07:08:13.789Z,97526
2019-02-23T07:09:23.351Z,97522
2019-02-23T07:10:32.858Z,97523
2019-02-23T07:11:42.371Z,97527
2019-02-23T07:12:51.897Z,97524
2019-02-23T07:14:01.415Z,97527
2019-02-23T07:15:10.962Z,97528
2019-02-23T07:16:20.464Z,97529
2019-02-23T07:17:29.993Z,97532
2019-02-23T07:18:39.524Z,97531
2019-02-23T07:19:49.049Z,97529
2019-02-23T07:20:58.579Z,97527
2019-02-23T07:22:15.298Z,97525
2019-02-23T07:23:18.584Z,97524
2019-02-23T07:24:28.111Z,97522
2019-02-23T07:25:37.623Z,97528
2019-02-23T07:26:47.175Z,97527
2019-02-23T07:27:56.694Z,97523
2019-02-23T07:29:06.218Z,97508
2019-02-23T07:30:15.736Z,97509
2019-02-23T07:31:25.237Z,97502
2019-02-23T07:32:34.749Z,97491
2019-02-23T07:33:44.272Z,97491
2019-02-23T07:34:53.825Z,97483
2019-02-23T07:36:03.321Z,97487
2019-02-23T07:37:12.847Z,97492
2019-02-23T07:38:22.334Z,97491
2019-02-23T07:39:31.857Z,97498
2019-02-23T07:40:41.368Z,97500
2019-02-23T07:41:50.895Z,97496
2019-02-23T07:43:00.404Z,97494
2019-02-23T07:44:09.925Z,97495
2019-02-23T07:45:19.443Z,97497
2019-02-23T07:46:28.953Z,97492
2019-02-23T07:47:38.475Z,97485
2019-02-23T07:48:47.995Z,97488
2019-02-23T07:49:57.528Z,97493
2019-02-23T07:51:07.080Z,97497
2019-02-23T07:52:25.908Z,97496
2019-02-23T07:53:27.095Z,97503
2019-02-23T07:54:36.653Z,97501
2019-02-23T07:55:46.139Z,97504
2019-02-23T07:56:55.652Z,97507
2019-02-23T07:58:05.170Z,97513
2019-02-23T07:59:14.675Z,97515
2019-02-23T08:00:24.207Z,97512
2019-02-23T08:01:33.727Z,97518
2019-02-23T08:02:43.242Z,97526
2019-02-23T08:03:52.753Z,97522
2019-02-23T08:05:02.321Z,97524
2019-02-23T08:06:11.848Z,97530
2019-02-23T08:07:21.362Z,97535
2019-02-23T08:08:30.871Z,97532
2019-02-23T08:09:40.391Z,97533
2019-02-23T08:10:49.896Z,97527
2019-02-23T08:11:59.414Z,97529
2019-02-23T08:13:08.927Z,97536
2019-02-23T08:14:18.443Z,97532
2019-02-23T08:15:27.964Z,97537
2019-02-23T08:16:37.476Z,97535
2019-02-23T08:17:47.082Z,97538
2019-02-23T08:18:58.985Z,97524
2019-02-23T08:20:05.993Z,97526
2019-02-23T08:21:15.508Z,97520
2019-02-23T08:22:25.015Z,97511
2019-02-23T08:23:35.520Z,97513
2019-02-23T08:24:45.050Z,97505
2019-02-23T08:25:54.558Z,97499
2019-02-23T08:27:04.073Z,97503
2019-02-23T08:28:13.586Z,97508
2019-02-23T08:29:23.097Z,97514
2019-02-23T08:30:32.626Z,97512
2019-02-23T08:31:42.131Z,97520
2019-02-23T08:32:51.651Z,97523
2019-02-23T08:34:01.151Z,97521
2019-02-23T08:35:10.685Z,97528
2019-02-23T08:36:20.190Z,97539
2019-02-23T08:37:29.701Z,97545
2019-02-23T08:38:39.214Z,97550
2019-02-23T08:39:48.763Z,97558
2019-02-23T08:40:58.293Z,97557
2019-02-23T08:42:07.896Z,97556
2019-02-23T08:43:17.418Z,97552
2019-02-23T08:44:26.927Z,97557
2019-02-23T08:45:36.461Z,97551
2019-02-23T08:46:45.985Z,97547
2019-02-23T08:47:56.392Z,97541
2019-02-23T08:49:05.008Z,97540
2019-02-23T08:50:14.581Z,97544
2019-02-23T08:51:24.115Z,97544
2019-02-23T08:52:33.620Z,97539
2019-02-23T08:53:44.136Z,97540
2019-02-23T08:54:53.640Z,97539
2019-02-23T08:56:03.173Z,97535
2019-02-23T08:57:12.677Z,97533
2019-02-23T08:58:22.183Z,97528
2019-02-23T08:59:31.690Z,97522
2019-02-23T09:00:41.220Z,97515
2019-02-23T09:01:50.721Z,97509
2019-02-23T09:03:00.219Z,97512
2019-02-23T09:04:09.720Z,97513
2019-02-23T09:05:19.250Z,97517
2019-02-23T09:06:28.829Z,97519
2019-02-23T09:07:38.345Z,97528
2019-02-23T09:08:47.835Z,97528
2019-02-23T09:09:57.349Z,97529
2019-02-23T09:11:06.928Z,97533
2019-02-23T09:12:16.445Z,97535
2019-02-23T09:13:25.970Z,97543
2019-02-23T09:14:35.500Z,97549
2019-02-23T09:15:45.025Z,97550
2019-02-23T09:16:54.523Z,97553
2019-02-23T09:18:04.027Z,97562
2019-02-23T09:19:13.528Z,97564
2019-02-23T09:20:28.874Z,97564
2019-02-23T09:21:32.549Z,97556
2019-02-23T09:22:42.148Z,97550
2019-02-23T09:23:52.583Z,97550
2019-02-23T09:25:02.082Z,97547
2019-02-23T09:26:11.599Z,97554
2019-02-23T09:27:21.176Z,97547
2019-02-23T09:28:30.696Z,97550
2019-02-23T09:29:40.209Z,97550
2019-02-23T09:30:49.729Z,97555
2019-02-23T09:31:59.252Z,97560
2019-02-23T09:33:08.764Z,97550
2019-02-23T09:34:18.266Z,97551
2019-02-23T09:35:27.787Z,97550
2019-02-23T09:36:37.289Z,97554
2019-02-23T09:37:46.826Z,97556
2019-02-23T09:38:56.332Z,97563
2019-02-23T09:40:05.841Z,97561
2019-02-23T09:41:15.359Z,97565
2019-02-23T09:42:24.885Z,97570
2019-02-23T09:43:34.396Z,97570
2019-02-23T09:44:43.927Z,97579
2019-02-23T09:45:53.451Z,97573
2019-02-23T09:47:02.989Z,97575
2019-02-23T09:48:12.503Z,97580
2019-02-23T09:49:22.005Z,97582
2019-02-23T09:50:31.616Z,97579
2019-02-23T09:51:41.130Z,97592
2019-02-23T09:52:50.644Z,97579
2019-02-23T09:54:00.151Z,97582
2019-02-23T09:55:09.671Z,97581
2019-02-23T09:56:19.250Z,97589
2019-02-23T09:57:28.754Z,97583
2019-02-23T09:58:38.260Z,97586
2019-02-23T09:59:47.822Z,97587
2019-02-23T10:00:57.342Z,97591
2019-02-23T10:02:06.861Z,97591
2019-02-23T10:03:16.382Z,97589
2019-02-23T10:04:25.931Z,97589
2019-02-23T10:05:37.961Z,97588
2019-02-23T10:06:44.968Z,97588
2019-02-23T10:07:54.483Z,97575
2019-02-23T10:09:04.006Z,97581
2019-02-23T10:10:13.738Z,97568
2019-02-23T10:11:23.326Z,97579
2019-02-23T10:12:33.028Z,97564
2019-02-23T10:13:42.541Z,97567
2019-02-23T10:14:52.054Z,97566
2019-02-23T10:16:01.582Z,97564
2019-02-23T10:17:11.105Z,97563
2019-02-23T10:18:20.611Z,97568
2019-02-23T10:19:30.138Z,97578
2019-02-23T10:20:39.722Z,97571
2019-02-23T10:21:49.412Z,97569
2019-02-23T10:22:58.977Z,97573
2019-02-23T10:24:08.592Z,97571
2019-02-23T10:25:18.204Z,97574
2019-02-23T10:26:27.836Z,97578
2019-02-23T10:27:37.431Z,97583
2019-02-23T10:28:47.042Z,97578
2019-02-23T10:29:56.612Z,97579
2019-02-23T10:31:06.217Z,97566
2019-02-23T10:32:15.814Z,97576
2019-02-23T10:33:25.368Z,97574
2019-02-23T10:34:34.892Z,97574
2019-02-23T10:35:44.405Z,97581
2019-02-23T10:36:53.924Z,97571
2019-02-23T10:38:03.429Z,97579
2019-02-23T10:39:12.941Z,97577
2019-02-23T10:40:22.438Z,97576
2019-02-23T10:41:31.973Z,97573
2019-02-23T10:42:41.482Z,97576
2019-02-23T10:43:50.996Z,97574
2019-02-23T10:45:00.518Z,97583
2019-02-23T10:46:10.059Z,97582
2019-02-23T10:47:19.589Z,97582
2019-02-23T10:48:29.135Z,97580
2019-02-23T10:49:38.635Z,97589
2019-02-23T10:50:48.148Z,97594
2019-02-23T10:51:57.671Z,97594
2019-02-23T10:53:07.178Z,97596
2019-02-23T10:54:16.689Z,97602
2019-02-23T10:55:26.193Z,97590
2019-02-23T10:56:35.720Z,97591
2019-02-23T10:57:45.220Z,97582
2019-02-23T10:58:54.724Z,97577
2019-02-23T11:00:04.234Z,97575
2019-02-23T11:01:13.742Z,97579
2019-02-23T11:02:23.263Z,97573
2019-02-23T11:03:32.773Z,97573
2019-02-23T11:04:42.279Z,97580
2019-02-23T11:05:51.797Z,97584
2019-02-23T11:07:01.326Z,97586
2019-02-23T11:08:10.832Z,97590
2019-02-23T11:09:20.339Z,97590
2019-02-23T11:10:29.846Z,97587
2019-02-23T11:11:39.367Z,97584
2019-02-23T11:12:48.875Z,97581
2019-02-23T11:13:58.394Z,97581
2019-02-23T11:15:07.910Z,97580
2019-02-23T11:16:17.402Z,97582
2019-02-23T11:17:26.917Z,97578
2019-02-23T11:18:36.447Z,97575
2019-02-23T11:19:45.948Z,97566
2019-02-23T11:20:55.457Z,97571
2019-02-23T11:22:04.978Z,97565
2019-02-23T11:23:14.487Z,97559
2019-02-23T11:24:23.991Z,97555
2019-02-23T11:25:33.508Z,97555
2019-02-23T11:26:43.030Z,97545
2019-02-23T11:27:52.708Z,97546
2019-02-23T11:29:02.235Z,97546
2019-02-23T11:30:11.738Z,97544
2019-02-23T11:31:21.244Z,97545
2019-02-23T11:32:30.768Z,97536
2019-02-23T11:33:40.286Z,97531
2019-02-23T11:34:49.791Z,97528
2019-02-23T11:35:59.294Z,97526
2019-02-23T11:37:08.821Z,97521
2019-02-23T11:38:18.326Z,97516
2019-02-23T11:39:27.851Z,97508
2019-02-23T11:40:37.354Z,97506
2019-02-23T11:41:46.889Z,97505
2019-02-23T11:42:56.396Z,97509
2019-02-23T11:44:05.920Z,97514
2019-02-23T11:45:15.428Z,97512
2019-02-23T11:46:24.927Z,97507
2019-02-23T11:47:34.452Z,97507
2019-02-23T11:48:43.958Z,97504
2019-02-23T11:49:53.458Z,97500
2019-02-23T11:51:02.966Z,97499
2019-02-23T11:52:12.495Z,97504
2019-02-23T11:53:22.002Z,97508
2019-02-23T11:54:31.503Z,97504
2019-02-23T11:55:41.013Z,97497
2019-02-23T11:56:50.523Z,97498
2019-02-23T11:58:00.057Z,97499
2019-02-23T11:59:09.560Z,97490
2019-02-23T12:00:19.062Z,97493
2019-02-23T12:01:28.586Z,97489
2019-02-23T12:02:38.116Z,97496
2019-02-23T12:03:48.615Z,97490
2019-02-23T12:04:58.125Z,97491
2019-02-23T12:06:07.638Z,97499
2019-02-23T12:07:17.175Z,97503
2019-02-23T12:08:26.686Z,97509
2019-02-23T12:09:36.207Z,97514
2019-02-23T12:10:45.723Z,97512
2019-02-23T12:11:55.245Z,97511
2019-02-23T12:13:04.782Z,97508
2019-02-23T12:14:14.290Z,97515
2019-02-23T12:15:23.817Z,97514
2019-02-23T12:16:33.338Z,97512
2019-02-23T12:17:43.872Z,97505
2019-02-23T12:18:53.359Z,97509
2019-02-23T12:20:02.870Z,97514
2019-02-23T12:21:12.411Z,97509
2019-02-23T12:22:21.969Z,97509
2019-02-23T12:23:31.558Z,97515
2019-02-23T12:24:41.156Z,97513
2019-02-23T12:25:50.720Z,97519
2019-02-23T12:27:00.229Z,97518
2019-02-23T12:28:09.767Z,97523
2019-02-23T12:29:19.270Z,97521
2019-02-23T12:30:28.780Z,97525
2019-02-23T12:31:38.284Z,97518
2019-02-23T12:32:47.818Z,97514
2019-02-23T12:33:57.318Z,97513
2019-02-23T12:35:06.825Z,97509
2019-02-23T12:36:16.327Z,97510
2019-02-23T12:37:25.931Z,97509
2019-02-23T12:38:35.440Z,97507
2019-02-23T12:39:44.954Z,97505
2019-02-23T12:40:54.488Z,97504
2019-02-23T12:42:03.998Z,97503
2019-02-23T12:43:13.515Z,97494
2019-02-23T12:44:23.030Z,97489
2019-02-23T12:45:32.541Z,97493
2019-02-23T12:46:42.054Z,97483
2019-02-23T12:47:51.573Z,97486
2019-02-23T12:49:01.079Z,97479
2019-02-23T12:50:10.585Z,97477
2019-02-23T12:51:20.085Z,97472
2019-02-23T12:52:29.618Z,97477
2019-02-23T12:53:39.129Z,97476
2019-02-23T12:54:48.635Z,97475
2019-02-23T12:55:58.210Z,97469
2019-02-23T12:57:07.642Z,97469
2019-02-23T12:58:17.164Z,97469
2019-02-23T12:59:26.670Z,97467
2019-02-23T13:00:36.186Z,97464
2019-02-23T13:01:45.695Z,97463
2019-02-23T13:02:55.226Z,97462
2019-02-23T13:04:04.730Z,97463
2019-02-23T13:05:14.286Z,97460
2019-02-23T13:06:23.774Z,97465
2019-02-23T13:07:33.275Z,97463
2019-02-23T13:08:42.790Z,97461
2019-02-23T13:09:52.326Z,97460
2019-02-23T13:11:01.824Z,97460
2019-02-23T13:12:11.329Z,97461
2019-02-23T13:13:20.859Z,97461
2019-02-23T13:14:30.368Z,97452
2019-02-23T13:15:39.867Z,97455
2019-02-23T13:16:49.400Z,97459
2019-02-23T13:17:58.954Z,97455
2019-02-23T13:19:08.461Z,97460
2019-02-23T13:20:17.968Z,97454
2019-02-23T13:21:27.479Z,97459
2019-02-23T13:22:36.986Z,97458
2019-02-23T13:23:47.575Z,97454
2019-02-23T13:24:57.036Z,97456
2019-02-23T13:26:06.547Z,97450
2019-02-23T13:27:16.065Z,97447
2019-02-23T13:28:25.604Z,97456
2019-02-23T13:29:35.113Z,97438
2019-02-23T13:30:44.648Z,97444
2019-02-23T13:31:54.157Z,97438
2019-02-23T13:33:03.660Z,97444
2019-02-23T13:34:13.210Z,97444
2019-02-23T13:35:22.718Z,97445
2019-02-23T13:36:32.218Z,97442
2019-02-23T13:37:41.747Z,97439
2019-02-23T13:38:51.304Z,97448
2019-02-23T13:40:00.811Z,97442
2019-02-23T13:41:10.321Z,97444
2019-02-23T13:42:19.838Z,97451
2019-02-23T13:43:29.426Z,97452
2019-02-23T13:44:38.933Z,97444
2019-02-23T13:45:48.501Z,97440
2019-02-23T13:46:58.015Z,97441
2019-02-23T13:48:07.533Z,97442
2019-02-23T13:49:17.068Z,97441
2019-02-23T13:50:26.643Z,97436
2019-02-23T13:51:36.161Z,97438
2019-02-23T13:52:45.676Z,97435
2019-02-23T13:53:55.220Z,97433
2019-02-23T13:55:04.734Z,97436
2019-02-23T13:56:14.676Z,97423
2019-02-23T13:57:23.735Z,97430
2019-02-23T13:58:33.285Z,97420
2019-02-23T13:59:42.791Z,97416
2019-02-23T14:00:52.295Z,97410
2019-02-23T14:02:01.803Z,97413
2019-02-23T14:03:11.314Z,97412
2019-02-23T14:04:20.836Z,97409
2019-02-23T14:05:30.343Z,97401
2019-02-23T14:06:39.848Z,97408
2019-02-23T14:07:49.349Z,97405
2019-02-23T14:08:58.875Z,97405
2019-02-23T14:10:08.412Z,97400
2019-02-23T14:11:17.936Z,97396
2019-02-23T14:12:27.441Z,97396
2019-02-23T14:13:36.950Z,97389
2019-02-23T14:14:46.481Z,97394
2019-02-23T14:15:55.987Z,97389
2019-02-23T14:17:05.523Z,97393
2019-02-23T14:18:15.026Z,97399
2019-02-23T14:19:24.553Z,97403
2019-02-23T14:20:34.054Z,97393
2019-02-23T14:21:43.596Z,97392
2019-02-23T14:22:53.096Z,97396
2019-02-23T14:24:02.591Z,97394
2019-02-23T14:25:12.136Z,97392
2019-02-23T14:26:21.633Z,97395
2019-02-23T14:27:31.166Z,97394
2019-02-23T14:28:40.672Z,97394
2019-02-23T14:29:50.239Z,97397
2019-02-23T14:31:00.734Z,97397
2019-02-23T14:32:10.237Z,97397
2019-02-23T14:33:19.746Z,97394
2019-02-23T14:34:29.255Z,97392
2019-02-23T14:35:38.774Z,97393
2019-02-23T14:36:48.281Z,97393
2019-02-23T14:37:57.803Z,97388
2019-02-23T14:39:07.289Z,97387
2019-02-23T14:40:16.807Z,97389
2019-02-23T14:41:26.337Z,97392
2019-02-23T14:42:35.854Z,97393
2019-02-23T14:43:45.326Z,97388
2019-02-23T14:44:54.918Z,97390
2019-02-23T14:46:04.461Z,97386
2019-02-23T14:47:13.927Z,97387
2019-02-23T14:48:23.472Z,97381
2019-02-23T14:49:32.961Z,97388
2019-02-23T14:50:42.479Z,97389
2019-02-23T14:51:51.985Z,97390
2019-02-23T14:53:01.490Z,97390
2019-02-23T14:54:10.994Z,97390
2019-02-23T14:55:20.643Z,97391